TimeCDT,TemperatureF,Dew PointF,Humidity,Sea Level PressureIn,VisibilityMPH,Wind Direction,Wind SpeedMPH,Gust SpeedMPH,PrecipitationIn,Events,Conditions,WindDirDegrees,DateUTC
12:53 AM,34.0,30.0,85,30.19,10.0,ESE,3.5,-,N/A,,Clear,110,2013-03-15 05:53:00
1:53 AM,33.1,30.0,89,30.19,8.0,Calm,Calm,-,N/A,,Clear,0,2013-03-15 06:53:00
2:53 AM,30.9,28.9,92,30.15,8.0,Calm,Calm,-,N/A,,Clear,0,2013-03-15 07:53:00
4:53 AM,30.9,28.9,92,30.10,6.0,Calm,Calm,-,N/A,,Clear,0,2013-03-15 09:53:00
5:16 AM,30.2,28.4,93,30.09,2.5,Calm,Calm,-,N/A,,Clear,0,2013-03-15 10:16:00
5:24 AM,30.2,28.4,93,30.09,7.0,Calm,Calm,-,N/A,,Clear,0,2013-03-15 10:24:00
5:53 AM,30.0,28.0,92,30.09,5.0,Calm,Calm,-,N/A,,Clear,0,2013-03-15 10:53:00
6:23 AM,28.4,28.4,100,30.07,1.8,Calm,Calm,-,N/A,,Clear,0,2013-03-15 11:23:00
6:33 AM,30.2,28.4,93,30.07,3.0,Calm,Calm,-,N/A,,Clear,0,2013-03-15 11:33:00
6:53 AM,30.9,28.9,92,30.07,7.0,Calm,Calm,-,N/A,,Clear,0,2013-03-15 11:53:00
7:00 AM,28.4,28.4,100,30.06,1.2,Calm,Calm,-,N/A,,Clear,0,2013-03-15 12:00:00
7:03 AM,28.4,26.6,93,30.06,0.5,Calm,Calm,-,N/A,Fog,Light Freezing Fog,0,2013-03-15 12:03:00
7:15 AM,30.2,28.4,93,30.05,1.0,Calm,Calm,-,N/A,,Clear,0,2013-03-15 12:15:00
7:19 AM,30.2,28.4,93,30.06,2.5,Calm,Calm,-,N/A,,Clear,0,2013-03-15 12:19:00
7:26 AM,30.2,28.4,93,30.06,6.0,Calm,Calm,-,N/A,,Clear,0,2013-03-15 12:26:00
7:53 AM,32.0,30.0,92,30.07,9.0,Calm,Calm,-,N/A,,Clear,0,2013-03-15 12:53:00
8:53 AM,45.0,35.1,68,30.06,10.0,Calm,Calm,-,N/A,,Clear,0,2013-03-15 13:53:00
9:53 AM,52.0,37.9,59,30.06,10.0,WSW,9.2,-,N/A,,Clear,240,2013-03-15 14:53:00
10:53 AM,57.0,39.0,51,30.04,10.0,SW,9.2,-,N/A,,Clear,230,2013-03-15 15:53:00
11:53 AM,61.0,39.9,46,30.01,10.0,SSW,10.4,-,N/A,,Clear,210,2013-03-15 16:53:00
12:53 PM,66.0,42.1,42,29.99,10.0,SW,9.2,-,N/A,,Clear,230,2013-03-15 17:53:00
1:53 PM,69.1,42.1,38,29.96,10.0,SW,12.7,20.7,N/A,,Clear,230,2013-03-15 18:53:00
2:53 PM,71.1,44.1,38,29.93,10.0,WSW,13.8,24.2,N/A,,Clear,250,2013-03-15 19:53:00
3:53 PM,72.0,44.1,37,29.91,10.0,SW,16.1,19.6,N/A,,Clear,230,2013-03-15 20:53:00
4:53 PM,72.0,44.1,37,29.89,10.0,SW,12.7,-,N/A,,Clear,230,2013-03-15 21:53:00
5:53 PM,70.0,44.1,39,29.88,10.0,SW,9.2,-,N/A,,Clear,230,2013-03-15 22:53:00
6:53 PM,64.9,45.0,48,29.87,10.0,Calm,Calm,-,N/A,,Clear,0,2013-03-15 23:53:00
7:53 PM,60.1,45.0,57,29.86,10.0,South,3.5,-,N/A,,Clear,180,2013-03-16 00:53:00
8:53 PM,64.9,45.0,48,29.83,10.0,SSW,9.2,-,N/A,,Mostly Cloudy,210,2013-03-16 01:53:00
9:53 PM,66.0,44.1,45,29.82,10.0,SSW,9.2,-,N/A,,Mostly Cloudy,200,2013-03-16 02:53:00
10:53 PM,62.1,45.0,53,29.84,10.0,NNE,3.5,-,N/A,,Overcast,20,2013-03-16 03:53:00
11:53 PM,62.1,44.1,52,29.81,10.0,SSW,9.2,-,N/A,,Clear,200,2013-03-16 04:53:00